sensor_id;sensor_type;location;lat;lon;timestamp;pressure;altitude;pressure_sealevel;temperature;humidity
56414;BME280;42318;48.452;19.526;2023-04-08T00:03:07;98435.47;;;20.72;49.96
56414;BME280;42318;48.452;19.526;2023-04-08T00:10:38;98433.81;;;20.66;50.16
56414;BME280;42318;48.452;19.526;2023-04-08T00:18:09;98434.59;;;20.61;50.17
56414;BME280;42318;48.452;19.526;2023-04-08T00:25:39;98443.53;;;20.57;50.01
56414;BME280;42318;48.452;19.526;2023-04-08T00:33:10;98444.63;;;20.56;50.05
56414;BME280;42318;48.452;19.526;2023-04-08T00:40:41;98442.41;;;20.53;50.06
56414;BME280;42318;48.452;19.526;2023-04-08T00:48:12;98444.91;;;20.59;49.83
56414;BME280;42318;48.452;19.526;2023-04-08T00:55:43;98456.38;;;20.61;49.94
56414;BME280;42318;48.452;19.526;2023-04-08T01:03:41;98456.91;;;20.58;49.76
56414;BME280;42318;48.452;19.526;2023-04-08T01:11:17;98470.25;;;20.60;49.74
56414;BME280;42318;48.452;19.526;2023-04-08T01:18:48;98467.81;;;20.63;49.47
56414;BME280;42318;48.452;19.526;2023-04-08T01:26:22;98468.91;;;20.62;49.58
56414;BME280;42318;48.452;19.526;2023-04-08T01:33:55;98468.09;;;20.62;49.46
56414;BME280;42318;48.452;19.526;2023-04-08T01:41:28;98465.63;;;20.60;49.28
56414;BME280;42318;48.452;19.526;2023-04-08T01:49:00;98462.06;;;20.60;49.50
56414;BME280;42318;48.452;19.526;2023-04-08T01:56:35;98473.22;;;20.58;49.55
56414;BME280;42318;48.452;19.526;2023-04-08T02:04:07;98473.19;;;20.53;49.54
56414;BME280;42318;48.452;19.526;2023-04-08T02:11:38;98474.78;;;20.49;49.37
56414;BME280;42318;48.452;19.526;2023-04-08T02:19:14;98479.09;;;20.45;49.80
56414;BME280;42318;48.452;19.526;2023-04-08T02:26:48;98481.28;;;20.43;49.30
56414;BME280;42318;48.452;19.526;2023-04-08T02:34:21;98485.38;;;20.46;49.51
56414;BME280;42318;48.452;19.526;2023-04-08T02:41:53;98480.19;;;20.44;49.43
56414;BME280;42318;48.452;19.526;2023-04-08T02:49:24;98491.63;;;20.46;49.43
56414;BME280;42318;48.452;19.526;2023-04-08T02:56:55;98489.19;;;20.45;49.28
56414;BME280;42318;48.452;19.526;2023-04-08T03:04:26;98488.97;;;20.51;49.27
56414;BME280;42318;48.452;19.526;2023-04-08T03:11:57;98484.34;;;20.52;49.60
56414;BME280;42318;48.452;19.526;2023-04-08T03:19:27;98486.78;;;20.53;49.29
56414;BME280;42318;48.452;19.526;2023-04-08T03:26:58;98485.47;;;20.56;49.17
56414;BME280;42318;48.452;19.526;2023-04-08T03:34:29;98489.81;;;20.57;48.87
56414;BME280;42318;48.452;19.526;2023-04-08T03:42:00;98479.44;;;20.54;49.01
56414;BME280;42318;48.452;19.526;2023-04-08T03:49:32;98496.03;;;20.52;49.03
56414;BME280;42318;48.452;19.526;2023-04-08T03:57:03;98497.38;;;20.50;49.05
56414;BME280;42318;48.452;19.526;2023-04-08T04:04:34;98503.66;;;20.50;48.84
56414;BME280;42318;48.452;19.526;2023-04-08T04:12:06;98503.34;;;20.47;49.01
56414;BME280;42318;48.452;19.526;2023-04-08T04:19:37;98505.50;;;20.45;49.09
56414;BME280;42318;48.452;19.526;2023-04-08T04:27:07;98508.75;;;20.42;49.02
56414;BME280;42318;48.452;19.526;2023-04-08T04:34:38;98524.00;;;20.43;48.89
56414;BME280;42318;48.452;19.526;2023-04-08T04:42:09;98530.56;;;20.47;48.78
56414;BME280;42318;48.452;19.526;2023-04-08T04:49:40;98532.19;;;20.48;48.62
56414;BME280;42318;48.452;19.526;2023-04-08T04:57:11;98537.94;;;20.51;48.47
56414;BME280;42318;48.452;19.526;2023-04-08T05:04:42;98547.44;;;20.49;48.53
56414;BME280;42318;48.452;19.526;2023-04-08T05:12:13;98548.78;;;20.46;48.45
56414;BME280;42318;48.452;19.526;2023-04-08T05:19:43;98568.63;;;20.42;48.68
56414;BME280;42318;48.452;19.526;2023-04-08T05:27:14;98568.75;;;20.35;48.76
56414;BME280;42318;48.452;19.526;2023-04-08T05:34:45;98571.16;;;20.31;48.55
56414;BME280;42318;48.452;19.526;2023-04-08T05:42:16;98586.38;;;20.27;48.54
56414;BME280;42318;48.452;19.526;2023-04-08T05:49:47;98573.28;;;20.24;48.43
56414;BME280;42318;48.452;19.526;2023-04-08T05:57:18;98592.88;;;20.26;48.53
56414;BME280;42318;48.452;19.526;2023-04-08T06:04:49;98585.28;;;20.28;48.50
56414;BME280;42318;48.452;19.526;2023-04-08T06:12:20;98590.16;;;20.26;48.68
56414;BME280;42318;48.452;19.526;2023-04-08T06:19:51;98607.78;;;20.41;49.35
56414;BME280;42318;48.452;19.526;2023-04-08T06:27:22;98598.13;;;20.55;49.33
56414;BME280;42318;48.452;19.526;2023-04-08T06:34:53;98605.28;;;20.61;49.18
56414;BME280;42318;48.452;19.526;2023-04-08T06:42:23;98607.63;;;20.79;48.89
56414;BME280;42318;48.452;19.526;2023-04-08T06:49:54;98621.56;;;20.83;49.06
56414;BME280;42318;48.452;19.526;2023-04-08T06:57:25;98630.41;;;20.68;49.63
56414;BME280;42318;48.452;19.526;2023-04-08T07:04:56;98633.56;;;20.60;50.20
56414;BME280;42318;48.452;19.526;2023-04-08T07:12:27;98636.81;;;20.57;50.28
56414;BME280;42318;48.452;19.526;2023-04-08T07:19:58;98639.06;;;20.65;50.10
56414;BME280;42318;48.452;19.526;2023-04-08T07:27:28;98645.91;;;20.67;49.96
56414;BME280;42318;48.452;19.526;2023-04-08T07:35:00;98643.69;;;20.64;50.03
56414;BME280;42318;48.452;19.526;2023-04-08T07:42:31;98651.44;;;20.78;50.03
56414;BME280;42318;48.452;19.526;2023-04-08T07:50:02;98645.75;;;20.79;51.05
56414;BME280;42318;48.452;19.526;2023-04-08T07:57:33;98652.75;;;20.70;51.16
56414;BME280;42318;48.452;19.526;2023-04-08T08:05:05;98656.81;;;20.67;50.71
56414;BME280;42318;48.452;19.526;2023-04-08T08:12:36;98654.84;;;20.63;51.00
56414;BME280;42318;48.452;19.526;2023-04-08T08:20:07;98670.47;;;20.73;50.71
56414;BME280;42318;48.452;19.526;2023-04-08T08:27:38;98672.28;;;20.89;49.88
56414;BME280;42318;48.452;19.526;2023-04-08T08:35:11;98676.91;;;20.88;50.76
56414;BME280;42318;48.452;19.526;2023-04-08T08:42:48;98675.78;;;20.84;51.71
56414;BME280;42318;48.452;19.526;2023-04-08T08:50:21;98681.66;;;20.76;51.62
56414;BME280;42318;48.452;19.526;2023-04-08T08:57:51;98680.53;;;20.72;52.11
56414;BME280;42318;48.452;19.526;2023-04-08T09:05:22;98680.47;;;20.67;51.75
56414;BME280;42318;48.452;19.526;2023-04-08T09:12:54;98688.50;;;20.79;51.31
56414;BME280;42318;48.452;19.526;2023-04-08T09:20:25;98690.16;;;20.80;51.24
56414;BME280;42318;48.452;19.526;2023-04-08T09:27:57;98694.28;;;20.82;51.66
56414;BME280;42318;48.452;19.526;2023-04-08T09:35:28;98702.00;;;20.90;51.72
56414;BME280;42318;48.452;19.526;2023-04-08T09:43:04;98708.72;;;21.10;50.76
56414;BME280;42318;48.452;19.526;2023-04-08T09:50:42;98703.28;;;21.10;49.79
56414;BME280;42318;48.452;19.526;2023-04-08T09:58:21;98704.31;;;21.04;49.50
56414;BME280;42318;48.452;19.526;2023-04-08T10:05:57;98692.94;;;21.12;49.39
56414;BME280;42318;48.452;19.526;2023-04-08T10:13:32;98688.22;;;21.02;49.23
56414;BME280;42318;48.452;19.526;2023-04-08T10:21:03;98697.13;;;20.92;48.82
56414;BME280;42318;48.452;19.526;2023-04-08T10:28:34;98699.56;;;20.94;48.26
56414;BME280;42318;48.452;19.526;2023-04-08T10:36:10;98701.44;;;20.88;47.79
56414;BME280;42318;48.452;19.526;2023-04-08T10:43:41;98705.50;;;20.86;47.69
56414;BME280;42318;48.452;19.526;2023-04-08T10:51:12;98707.13;;;20.87;49.07
56414;BME280;42318;48.452;19.526;2023-04-08T10:58:48;98701.53;;;20.98;48.80
56414;BME280;42318;48.452;19.526;2023-04-08T11:06:19;98687.84;;;21.20;48.77
56414;BME280;42318;48.452;19.526;2023-04-08T11:13:50;98687.56;;;21.22;49.19
56414;BME280;42318;48.452;19.526;2023-04-08T11:21:23;98684.81;;;21.17;49.08
56414;BME280;42318;48.452;19.526;2023-04-08T11:28:59;98695.41;;;21.13;49.48
56414;BME280;42318;48.452;19.526;2023-04-08T11:36:30;98695.81;;;21.00;50.11
56414;BME280;42318;48.452;19.526;2023-04-08T11:44:02;98686.06;;;21.04;49.89
56414;BME280;42318;48.452;19.526;2023-04-08T11:51:56;98690.72;;;21.09;49.98
56414;BME280;42318;48.452;19.526;2023-04-08T11:59:28;98689.75;;;21.20;49.51
56414;BME280;42318;48.452;19.526;2023-04-08T12:06:59;98684.69;;;21.28;49.65
56414;BME280;42318;48.452;19.526;2023-04-08T12:14:30;98681.72;;;21.30;49.41
56414;BME280;42318;48.452;19.526;2023-04-08T12:22:01;98683.88;;;21.28;49.60
56414;BME280;42318;48.452;19.526;2023-04-08T12:29:33;98684.75;;;21.12;49.56
56414;BME280;42318;48.452;19.526;2023-04-08T12:37:03;98693.66;;;21.02;49.70
56414;BME280;42318;48.452;19.526;2023-04-08T12:44:34;98679.38;;;20.90;50.81
56414;BME280;42318;48.452;19.526;2023-04-08T12:52:05;98686.94;;;20.83;51.39
56414;BME280;42318;48.452;19.526;2023-04-08T12:59:36;98676.53;;;20.80;51.41
56414;BME280;42318;48.452;19.526;2023-04-08T13:07:07;98682.31;;;20.83;51.27
56414;BME280;42318;48.452;19.526;2023-04-08T13:14:38;98677.78;;;20.94;51.34
56414;BME280;42318;48.452;19.526;2023-04-08T13:22:09;98676.75;;;21.00;50.90
56414;BME280;42318;48.452;19.526;2023-04-08T13:29:40;98674.84;;;21.00;50.64
56414;BME280;42318;48.452;19.526;2023-04-08T13:37:11;98684.66;;;21.01;50.76
56414;BME280;42318;48.452;19.526;2023-04-08T13:44:41;98678.34;;;20.96;50.94
56414;BME280;42318;48.452;19.526;2023-04-08T13:52:12;98682.88;;;20.85;50.77
56414;BME280;42318;48.452;19.526;2023-04-08T13:59:43;98677.28;;;20.75;50.90
56414;BME280;42318;48.452;19.526;2023-04-08T14:07:14;98693.28;;;20.66;51.64
56414;BME280;42318;48.452;19.526;2023-04-08T14:14:44;98691.81;;;20.59;51.20
56414;BME280;42318;48.452;19.526;2023-04-08T14:22:15;98698.84;;;20.55;50.52
56414;BME280;42318;48.452;19.526;2023-04-08T14:29:48;98686.31;;;20.54;50.17
56414;BME280;42318;48.452;19.526;2023-04-08T14:37:19;98688.47;;;20.52;49.76
56414;BME280;42318;48.452;19.526;2023-04-08T14:44:50;98697.66;;;20.46;49.78
56414;BME280;42318;48.452;19.526;2023-04-08T14:52:21;98701.47;;;20.45;50.20
56414;BME280;42318;48.452;19.526;2023-04-08T14:59:52;98701.16;;;20.41;50.29
56414;BME280;42318;48.452;19.526;2023-04-08T15:07:23;98705.16;;;20.38;50.31
56414;BME280;42318;48.452;19.526;2023-04-08T15:14:54;98705.06;;;20.33;50.64
56414;BME280;42318;48.452;19.526;2023-04-08T15:22:26;98711.28;;;20.29;50.67
56414;BME280;42318;48.452;19.526;2023-04-08T15:29:57;98703.38;;;20.27;50.20
56414;BME280;42318;48.452;19.526;2023-04-08T15:37:27;98708.88;;;20.32;50.08
56414;BME280;42318;48.452;19.526;2023-04-08T15:44:58;98718.09;;;20.31;50.08
56414;BME280;42318;48.452;19.526;2023-04-08T15:52:31;98714.63;;;20.36;50.11
56414;BME280;42318;48.452;19.526;2023-04-08T16:00:09;98723.03;;;20.34;50.14
56414;BME280;42318;48.452;19.526;2023-04-08T16:07:40;98722.41;;;20.27;50.26
56414;BME280;42318;48.452;19.526;2023-04-08T16:15:12;98712.03;;;20.24;49.96
56414;BME280;42318;48.452;19.526;2023-04-08T16:22:43;98724.00;;;20.23;50.21
56414;BME280;42318;48.452;19.526;2023-04-08T16:30:14;98724.44;;;20.15;50.07
56414;BME280;42318;48.452;19.526;2023-04-08T16:37:45;98720.16;;;20.02;50.12
56414;BME280;42318;48.452;19.526;2023-04-08T16:45:16;98729.66;;;20.00;50.67
56414;BME280;42318;48.452;19.526;2023-04-08T16:52:47;98729.41;;;20.01;50.16
56414;BME280;42318;48.452;19.526;2023-04-08T17:00:19;98729.91;;;19.98;50.21
56414;BME280;42318;48.452;19.526;2023-04-08T17:07:50;98742.56;;;19.93;50.48
56414;BME280;42318;48.452;19.526;2023-04-08T17:15:21;98746.38;;;19.92;50.39
56414;BME280;42318;48.452;19.526;2023-04-08T17:22:52;98752.31;;;19.89;50.31
56414;BME280;42318;48.452;19.526;2023-04-08T17:30:23;98751.66;;;19.82;50.20
56414;BME280;42318;48.452;19.526;2023-04-08T17:37:54;98768.78;;;19.82;50.06
56414;BME280;42318;48.452;19.526;2023-04-08T17:45:25;98772.00;;;19.79;50.28
56414;BME280;42318;48.452;19.526;2023-04-08T17:52:55;98777.69;;;19.77;50.15
56414;BME280;42318;48.452;19.526;2023-04-08T18:00:26;98787.00;;;19.82;50.01
56414;BME280;42318;48.452;19.526;2023-04-08T18:07:58;98796.97;;;19.76;50.18
56414;BME280;42318;48.452;19.526;2023-04-08T18:15:29;98788.72;;;19.88;49.92
56414;BME280;42318;48.452;19.526;2023-04-08T18:23:00;98797.47;;;20.06;49.42
56414;BME280;42318;48.452;19.526;2023-04-08T18:30:33;98796.47;;;20.13;49.49
56414;BME280;42318;48.452;19.526;2023-04-08T18:38:04;98806.03;;;20.15;49.55
56414;BME280;42318;48.452;19.526;2023-04-08T18:45:37;98804.22;;;20.21;49.66
56414;BME280;42318;48.452;19.526;2023-04-08T18:53:07;98812.84;;;20.34;49.12
56414;BME280;42318;48.452;19.526;2023-04-08T19:00:38;98813.63;;;20.47;49.09
56414;BME280;42318;48.452;19.526;2023-04-08T19:08:11;98818.38;;;20.56;49.05
56414;BME280;42318;48.452;19.526;2023-04-08T19:15:41;98822.31;;;20.65;48.80
56414;BME280;42318;48.452;19.526;2023-04-08T19:23:12;98817.69;;;20.66;48.74
56414;BME280;42318;48.452;19.526;2023-04-08T19:30:43;98819.66;;;20.70;48.66
56414;BME280;42318;48.452;19.526;2023-04-08T19:38:14;98817.50;;;20.73;48.56
56414;BME280;42318;48.452;19.526;2023-04-08T19:45:45;98817.00;;;20.76;48.78
56414;BME280;42318;48.452;19.526;2023-04-08T19:53:16;98823.34;;;20.81;48.88
56414;BME280;42318;48.452;19.526;2023-04-08T20:00:47;98826.66;;;20.83;48.88
56414;BME280;42318;48.452;19.526;2023-04-08T20:08:17;98822.91;;;20.89;48.62
56414;BME280;42318;48.452;19.526;2023-04-08T20:15:48;98822.41;;;20.92;48.47
56414;BME280;42318;48.452;19.526;2023-04-08T20:23:19;98820.75;;;20.91;48.57
56414;BME280;42318;48.452;19.526;2023-04-08T20:30:50;98828.94;;;20.91;48.42
56414;BME280;42318;48.452;19.526;2023-04-08T20:38:22;98832.22;;;20.93;48.23
56414;BME280;42318;48.452;19.526;2023-04-08T20:45:54;98837.72;;;20.98;48.53
56414;BME280;42318;48.452;19.526;2023-04-08T20:53:25;98835.06;;;21.04;48.54
56414;BME280;42318;48.452;19.526;2023-04-08T21:00:57;98836.22;;;21.08;48.42
56414;BME280;42318;48.452;19.526;2023-04-08T21:08:28;98838.16;;;21.12;48.01
56414;BME280;42318;48.452;19.526;2023-04-08T21:15:59;98846.09;;;21.14;47.87
56414;BME280;42318;48.452;19.526;2023-04-08T21:23:30;98843.63;;;21.12;48.21
56414;BME280;42318;48.452;19.526;2023-04-08T21:31:10;98846.91;;;21.14;48.02
56414;BME280;42318;48.452;19.526;2023-04-08T21:38:41;98844.38;;;21.08;48.05
56414;BME280;42318;48.452;19.526;2023-04-08T21:46:12;98843.03;;;21.10;48.08
56414;BME280;42318;48.452;19.526;2023-04-08T21:53:44;98841.41;;;21.09;48.39
56414;BME280;42318;48.452;19.526;2023-04-08T22:01:15;98845.56;;;21.17;48.12
56414;BME280;42318;48.452;19.526;2023-04-08T22:08:45;98844.44;;;21.13;47.98
56414;BME280;42318;48.452;19.526;2023-04-08T22:16:16;98839.50;;;21.10;48.34
56414;BME280;42318;48.452;19.526;2023-04-08T22:23:47;98836.72;;;21.05;48.06
56414;BME280;42318;48.452;19.526;2023-04-08T22:31:18;98832.03;;;21.00;48.26
56414;BME280;42318;48.452;19.526;2023-04-08T22:38:49;98835.78;;;20.94;48.25
56414;BME280;42318;48.452;19.526;2023-04-08T22:46:19;98837.09;;;20.91;48.32
56414;BME280;42318;48.452;19.526;2023-04-08T22:53:50;98839.75;;;20.86;47.99
56414;BME280;42318;48.452;19.526;2023-04-08T23:01:21;98837.63;;;20.88;47.96
56414;BME280;42318;48.452;19.526;2023-04-08T23:08:52;98841.09;;;20.84;48.24
56414;BME280;42318;48.452;19.526;2023-04-08T23:16:23;98843.72;;;20.79;48.37
56414;BME280;42318;48.452;19.526;2023-04-08T23:23:54;98838.63;;;20.82;47.90
56414;BME280;42318;48.452;19.526;2023-04-08T23:31:25;98844.00;;;20.99;47.39
56414;BME280;42318;48.452;19.526;2023-04-08T23:38:55;98852.03;;;21.11;47.16
56414;BME280;42318;48.452;19.526;2023-04-08T23:46:26;98855.28;;;21.08;47.59
56414;BME280;42318;48.452;19.526;2023-04-08T23:53:57;98851.97;;;21.06;47.56
